sensor_id;sensor_type;location;lat;lon;timestamp;P1;durP1;ratioP1;P2;durP2;ratioP2
82703;SDS011;72427;42.000;21.464;2023-09-19T00:00:36;49.78;;;24.33;;
82703;SDS011;72427;42.000;21.464;2023-09-19T00:03:02;50.67;;;24.55;;
82703;SDS011;72427;42.000;21.464;2023-09-19T00:05:29;45.47;;;26.80;;
82703;SDS011;72427;42.000;21.464;2023-09-19T00:08:00;39.70;;;21.33;;
82703;SDS011;72427;42.000;21.464;2023-09-19T00:10:26;39.20;;;21.02;;
82703;SDS011;72427;42.000;21.464;2023-09-19T00:12:56;43.55;;;22.50;;
82703;SDS011;72427;42.000;21.464;2023-09-19T00:15:24;38.78;;;21.20;;
82703;SDS011;72427;42.000;21.464;2023-09-19T00:17:51;39.20;;;21.38;;
82703;SDS011;72427;42.000;21.464;2023-09-19T00:20:17;38.40;;;20.88;;
82703;SDS011;72427;42.000;21.464;2023-09-19T00:22:44;44.58;;;21.67;;
82703;SDS011;72427;42.000;21.464;2023-09-19T00:25:10;43.17;;;21.42;;
82703;SDS011;72427;42.000;21.464;2023-09-19T00:27:40;38.38;;;21.58;;
82703;SDS011;72427;42.000;21.464;2023-09-19T00:30:10;48.08;;;22.65;;
82703;SDS011;72427;42.000;21.464;2023-09-19T00:32:43;40.80;;;21.95;;
82703;SDS011;72427;42.000;21.464;2023-09-19T00:35:12;37.20;;;21.17;;
82703;SDS011;72427;42.000;21.464;2023-09-19T00:37:39;42.28;;;22.02;;
82703;SDS011;72427;42.000;21.464;2023-09-19T00:40:06;35.03;;;20.80;;
82703;SDS011;72427;42.000;21.464;2023-09-19T00:42:36;39.08;;;20.67;;
82703;SDS011;72427;42.000;21.464;2023-09-19T00:45:03;38.67;;;19.98;;
82703;SDS011;72427;42.000;21.464;2023-09-19T00:47:29;39.53;;;21.67;;
82703;SDS011;72427;42.000;21.464;2023-09-19T00:49:55;40.28;;;21.58;;
82703;SDS011;72427;42.000;21.464;2023-09-19T00:52:21;34.03;;;20.05;;
82703;SDS011;72427;42.000;21.464;2023-09-19T00:54:49;37.03;;;21.48;;
82703;SDS011;72427;42.000;21.464;2023-09-19T00:57:15;41.83;;;22.08;;
82703;SDS011;72427;42.000;21.464;2023-09-19T00:59:42;42.97;;;22.25;;
82703;SDS011;72427;42.000;21.464;2023-09-19T01:02:08;42.58;;;23.02;;
82703;SDS011;72427;42.000;21.464;2023-09-19T01:04:35;39.85;;;22.20;;
82703;SDS011;72427;42.000;21.464;2023-09-19T01:07:02;32.75;;;20.83;;
82703;SDS011;72427;42.000;21.464;2023-09-19T01:09:28;36.90;;;20.30;;
82703;SDS011;72427;42.000;21.464;2023-09-19T01:11:57;42.90;;;21.85;;
82703;SDS011;72427;42.000;21.464;2023-09-19T01:17:14;40.80;;;21.42;;
82703;SDS011;72427;42.000;21.464;2023-09-19T01:28:13;37.88;;;20.08;;
82703;SDS011;72427;42.000;21.464;2023-09-19T01:30:42;39.83;;;20.38;;
82703;SDS011;72427;42.000;21.464;2023-09-19T01:33:09;35.47;;;19.85;;
82703;SDS011;72427;42.000;21.464;2023-09-19T01:35:38;36.67;;;19.80;;
82703;SDS011;72427;42.000;21.464;2023-09-19T01:38:05;35.13;;;19.45;;
82703;SDS011;72427;42.000;21.464;2023-09-19T01:40:36;37.10;;;19.50;;
82703;SDS011;72427;42.000;21.464;2023-09-19T01:48:15;37.63;;;19.80;;
82703;SDS011;72427;42.000;21.464;2023-09-19T01:50:45;36.60;;;19.30;;
82703;SDS011;72427;42.000;21.464;2023-09-19T01:53:15;34.95;;;19.58;;
82703;SDS011;72427;42.000;21.464;2023-09-19T01:55:46;39.05;;;20.85;;
82703;SDS011;72427;42.000;21.464;2023-09-19T02:01:01;36.85;;;19.20;;
82703;SDS011;72427;42.000;21.464;2023-09-19T02:03:28;33.55;;;19.35;;
82703;SDS011;72427;42.000;21.464;2023-09-19T02:05:55;35.03;;;18.60;;
82703;SDS011;72427;42.000;21.464;2023-09-19T02:08:21;34.17;;;19.17;;
82703;SDS011;72427;42.000;21.464;2023-09-19T02:10:50;30.92;;;18.70;;
82703;SDS011;72427;42.000;21.464;2023-09-19T02:13:18;35.30;;;19.27;;
82703;SDS011;72427;42.000;21.464;2023-09-19T02:15:45;31.38;;;18.65;;
82703;SDS011;72427;42.000;21.464;2023-09-19T02:18:11;32.30;;;20.60;;
82703;SDS011;72427;42.000;21.464;2023-09-19T02:20:38;35.25;;;19.10;;
82703;SDS011;72427;42.000;21.464;2023-09-19T02:23:04;31.58;;;18.60;;
82703;SDS011;72427;42.000;21.464;2023-09-19T02:25:30;30.70;;;17.98;;
82703;SDS011;72427;42.000;21.464;2023-09-19T02:27:57;32.78;;;18.77;;
82703;SDS011;72427;42.000;21.464;2023-09-19T02:30:28;36.85;;;18.38;;
82703;SDS011;72427;42.000;21.464;2023-09-19T02:32:54;32.25;;;18.58;;
82703;SDS011;72427;42.000;21.464;2023-09-19T02:35:20;33.22;;;18.42;;
82703;SDS011;72427;42.000;21.464;2023-09-19T02:37:46;56.05;;;21.98;;
82703;SDS011;72427;42.000;21.464;2023-09-19T02:40:12;45.20;;;20.17;;
82703;SDS011;72427;42.000;21.464;2023-09-19T02:42:47;38.85;;;22.30;;
82703;SDS011;72427;42.000;21.464;2023-09-19T02:45:17;45.92;;;25.63;;
82703;SDS011;72427;42.000;21.464;2023-09-19T02:47:44;55.88;;;23.75;;
82703;SDS011;72427;42.000;21.464;2023-09-19T02:50:10;47.20;;;23.73;;
82703;SDS011;72427;42.000;21.464;2023-09-19T02:52:36;44.53;;;23.52;;
82703;SDS011;72427;42.000;21.464;2023-09-19T02:55:02;34.92;;;19.63;;
82703;SDS011;72427;42.000;21.464;2023-09-19T02:57:31;40.88;;;19.05;;
82703;SDS011;72427;42.000;21.464;2023-09-19T02:59:58;34.20;;;18.17;;
82703;SDS011;72427;42.000;21.464;2023-09-19T03:02:25;32.95;;;18.35;;
82703;SDS011;72427;42.000;21.464;2023-09-19T03:04:52;33.22;;;18.73;;
82703;SDS011;72427;42.000;21.464;2023-09-19T03:07:19;33.88;;;19.40;;
82703;SDS011;72427;42.000;21.464;2023-09-19T03:09:45;36.58;;;19.38;;
82703;SDS011;72427;42.000;21.464;2023-09-19T03:12:11;35.47;;;19.65;;
82703;SDS011;72427;42.000;21.464;2023-09-19T03:14:40;38.13;;;21.42;;
82703;SDS011;72427;42.000;21.464;2023-09-19T03:17:06;41.67;;;20.77;;
82703;SDS011;72427;42.000;21.464;2023-09-19T03:19:34;49.08;;;21.63;;
82703;SDS011;72427;42.000;21.464;2023-09-19T03:22:00;43.30;;;22.17;;
82703;SDS011;72427;42.000;21.464;2023-09-19T03:24:27;46.28;;;21.70;;
82703;SDS011;72427;42.000;21.464;2023-09-19T03:26:54;36.47;;;19.88;;
82703;SDS011;72427;42.000;21.464;2023-09-19T03:29:20;31.83;;;18.83;;
82703;SDS011;72427;42.000;21.464;2023-09-19T03:31:47;32.65;;;18.58;;
82703;SDS011;72427;42.000;21.464;2023-09-19T03:34:13;37.72;;;21.33;;
82703;SDS011;72427;42.000;21.464;2023-09-19T03:36:39;45.00;;;25.77;;
82703;SDS011;72427;42.000;21.464;2023-09-19T03:39:06;36.17;;;20.48;;
82703;SDS011;72427;42.000;21.464;2023-09-19T03:41:32;33.50;;;19.48;;
82703;SDS011;72427;42.000;21.464;2023-09-19T03:44:01;36.75;;;17.98;;
82703;SDS011;72427;42.000;21.464;2023-09-19T03:46:27;57.63;;;33.35;;
82703;SDS011;72427;42.000;21.464;2023-09-19T03:48:53;41.88;;;24.13;;
82703;SDS011;72427;42.000;21.464;2023-09-19T03:51:20;58.60;;;24.10;;
82703;SDS011;72427;42.000;21.464;2023-09-19T03:53:46;35.83;;;18.38;;
82703;SDS011;72427;42.000;21.464;2023-09-19T03:56:14;34.28;;;18.38;;
82703;SDS011;72427;42.000;21.464;2023-09-19T03:58:40;32.00;;;18.58;;
82703;SDS011;72427;42.000;21.464;2023-09-19T04:01:06;32.00;;;18.15;;
82703;SDS011;72427;42.000;21.464;2023-09-19T04:03:35;32.83;;;18.60;;
82703;SDS011;72427;42.000;21.464;2023-09-19T04:06:15;36.95;;;19.27;;
82703;SDS011;72427;42.000;21.464;2023-09-19T04:08:41;41.45;;;20.00;;
82703;SDS011;72427;42.000;21.464;2023-09-19T04:11:08;45.63;;;22.95;;
82703;SDS011;72427;42.000;21.464;2023-09-19T04:13:34;45.58;;;23.90;;
82703;SDS011;72427;42.000;21.464;2023-09-19T04:16:01;48.70;;;22.30;;
82703;SDS011;72427;42.000;21.464;2023-09-19T04:18:28;51.28;;;25.13;;
82703;SDS011;72427;42.000;21.464;2023-09-19T04:23:23;54.97;;;24.05;;
82703;SDS011;72427;42.000;21.464;2023-09-19T04:25:49;52.65;;;24.13;;
82703;SDS011;72427;42.000;21.464;2023-09-19T04:28:16;50.47;;;24.00;;
82703;SDS011;72427;42.000;21.464;2023-09-19T04:30:42;43.90;;;23.58;;
82703;SDS011;72427;42.000;21.464;2023-09-19T04:33:08;56.63;;;23.80;;
82703;SDS011;72427;42.000;21.464;2023-09-19T04:35:34;56.47;;;24.65;;
82703;SDS011;72427;42.000;21.464;2023-09-19T04:38:00;80.75;;;25.98;;
82703;SDS011;72427;42.000;21.464;2023-09-19T04:40:28;67.18;;;24.83;;
82703;SDS011;72427;42.000;21.464;2023-09-19T04:42:55;56.15;;;25.73;;
82703;SDS011;72427;42.000;21.464;2023-09-19T04:45:25;69.25;;;25.73;;
82703;SDS011;72427;42.000;21.464;2023-09-19T04:47:51;57.92;;;24.40;;
82703;SDS011;72427;42.000;21.464;2023-09-19T04:50:18;50.58;;;23.35;;
82703;SDS011;72427;42.000;21.464;2023-09-19T04:52:46;51.17;;;23.70;;
82703;SDS011;72427;42.000;21.464;2023-09-19T04:55:15;49.88;;;23.90;;
82703;SDS011;72427;42.000;21.464;2023-09-19T04:57:43;54.42;;;24.67;;
82703;SDS011;72427;42.000;21.464;2023-09-19T05:00:10;61.03;;;25.33;;
82703;SDS011;72427;42.000;21.464;2023-09-19T05:02:38;49.50;;;24.70;;
82703;SDS011;72427;42.000;21.464;2023-09-19T05:05:05;50.33;;;25.05;;
82703;SDS011;72427;42.000;21.464;2023-09-19T05:07:31;50.50;;;25.42;;
82703;SDS011;72427;42.000;21.464;2023-09-19T05:09:59;57.10;;;25.10;;
82703;SDS011;72427;42.000;21.464;2023-09-19T05:12:26;57.28;;;26.35;;
82703;SDS011;72427;42.000;21.464;2023-09-19T05:14:52;48.08;;;26.25;;
82703;SDS011;72427;42.000;21.464;2023-09-19T05:17:18;42.63;;;24.60;;
82703;SDS011;72427;42.000;21.464;2023-09-19T05:19:44;57.17;;;24.33;;
82703;SDS011;72427;42.000;21.464;2023-09-19T05:22:11;48.33;;;24.45;;
82703;SDS011;72427;42.000;21.464;2023-09-19T05:24:37;49.55;;;26.08;;
82703;SDS011;72427;42.000;21.464;2023-09-19T05:27:04;53.88;;;26.20;;
82703;SDS011;72427;42.000;21.464;2023-09-19T05:29:32;48.85;;;24.52;;
82703;SDS011;72427;42.000;21.464;2023-09-19T05:31:58;41.97;;;23.73;;
82703;SDS011;72427;42.000;21.464;2023-09-19T05:34:25;40.92;;;22.70;;
82703;SDS011;72427;42.000;21.464;2023-09-19T05:36:54;49.38;;;21.85;;
82703;SDS011;72427;42.000;21.464;2023-09-19T05:39:20;46.90;;;23.15;;
82703;SDS011;72427;42.000;21.464;2023-09-19T05:41:47;54.35;;;23.73;;
82703;SDS011;72427;42.000;21.464;2023-09-19T05:44:14;48.80;;;24.98;;
82703;SDS011;72427;42.000;21.464;2023-09-19T05:46:40;54.72;;;25.42;;
82703;SDS011;72427;42.000;21.464;2023-09-19T05:49:06;52.72;;;25.52;;
82703;SDS011;72427;42.000;21.464;2023-09-19T05:51:32;52.35;;;24.63;;
82703;SDS011;72427;42.000;21.464;2023-09-19T05:53:58;77.45;;;31.30;;
82703;SDS011;72427;42.000;21.464;2023-09-19T05:56:24;52.88;;;24.25;;
82703;SDS011;72427;42.000;21.464;2023-09-19T05:58:50;43.30;;;21.30;;
82703;SDS011;72427;42.000;21.464;2023-09-19T06:01:18;40.78;;;21.23;;
82703;SDS011;72427;42.000;21.464;2023-09-19T06:03:44;35.90;;;20.35;;
82703;SDS011;72427;42.000;21.464;2023-09-19T06:06:10;39.53;;;22.52;;
82703;SDS011;72427;42.000;21.464;2023-09-19T06:08:36;37.17;;;21.90;;
82703;SDS011;72427;42.000;21.464;2023-09-19T06:11:02;41.45;;;21.45;;
82703;SDS011;72427;42.000;21.464;2023-09-19T06:13:32;51.80;;;21.75;;
82703;SDS011;72427;42.000;21.464;2023-09-19T06:15:58;44.10;;;21.38;;
82703;SDS011;72427;42.000;21.464;2023-09-19T06:18:29;41.53;;;21.60;;
82703;SDS011;72427;42.000;21.464;2023-09-19T06:20:58;46.75;;;22.25;;
82703;SDS011;72427;42.000;21.464;2023-09-19T06:23:24;46.30;;;22.33;;
82703;SDS011;72427;42.000;21.464;2023-09-19T06:25:52;45.60;;;22.80;;
82703;SDS011;72427;42.000;21.464;2023-09-19T06:28:18;47.78;;;24.25;;
82703;SDS011;72427;42.000;21.464;2023-09-19T06:30:49;45.00;;;24.77;;
82703;SDS011;72427;42.000;21.464;2023-09-19T06:33:15;45.80;;;23.80;;
82703;SDS011;72427;42.000;21.464;2023-09-19T06:35:42;41.58;;;23.08;;
82703;SDS011;72427;42.000;21.464;2023-09-19T06:38:09;48.17;;;26.05;;
82703;SDS011;72427;42.000;21.464;2023-09-19T06:40:38;45.60;;;26.05;;
82703;SDS011;72427;42.000;21.464;2023-09-19T06:43:08;50.17;;;26.42;;
82703;SDS011;72427;42.000;21.464;2023-09-19T06:45:35;45.08;;;27.08;;
82703;SDS011;72427;42.000;21.464;2023-09-19T06:48:01;49.85;;;25.60;;
82703;SDS011;72427;42.000;21.464;2023-09-19T06:50:28;49.28;;;25.73;;
82703;SDS011;72427;42.000;21.464;2023-09-19T06:52:56;55.63;;;24.58;;
82703;SDS011;72427;42.000;21.464;2023-09-19T06:55:24;47.33;;;25.42;;
82703;SDS011;72427;42.000;21.464;2023-09-19T06:57:53;51.65;;;24.42;;
82703;SDS011;72427;42.000;21.464;2023-09-19T07:00:19;44.13;;;23.17;;
82703;SDS011;72427;42.000;21.464;2023-09-19T07:02:58;46.15;;;23.58;;
82703;SDS011;72427;42.000;21.464;2023-09-19T07:05:26;57.95;;;26.40;;
82703;SDS011;72427;42.000;21.464;2023-09-19T07:07:53;58.35;;;26.13;;
82703;SDS011;72427;42.000;21.464;2023-09-19T07:10:24;56.55;;;27.20;;
82703;SDS011;72427;42.000;21.464;2023-09-19T07:13:02;62.35;;;27.05;;
82703;SDS011;72427;42.000;21.464;2023-09-19T07:15:28;54.00;;;26.85;;
82703;SDS011;72427;42.000;21.464;2023-09-19T07:17:56;51.85;;;24.90;;
82703;SDS011;72427;42.000;21.464;2023-09-19T07:20:23;49.75;;;25.80;;
82703;SDS011;72427;42.000;21.464;2023-09-19T07:22:56;47.03;;;25.05;;
82703;SDS011;72427;42.000;21.464;2023-09-19T07:25:24;44.70;;;25.58;;
82703;SDS011;72427;42.000;21.464;2023-09-19T07:27:50;46.17;;;25.40;;
82703;SDS011;72427;42.000;21.464;2023-09-19T07:30:16;45.17;;;24.85;;
82703;SDS011;72427;42.000;21.464;2023-09-19T07:32:42;46.67;;;25.73;;
82703;SDS011;72427;42.000;21.464;2023-09-19T07:35:08;46.72;;;24.50;;
82703;SDS011;72427;42.000;21.464;2023-09-19T07:37:34;45.80;;;24.35;;
82703;SDS011;72427;42.000;21.464;2023-09-19T07:40:01;47.63;;;23.63;;
82703;SDS011;72427;42.000;21.464;2023-09-19T07:42:33;42.75;;;24.08;;
82703;SDS011;72427;42.000;21.464;2023-09-19T07:45:00;42.88;;;23.05;;
82703;SDS011;72427;42.000;21.464;2023-09-19T07:47:26;39.38;;;21.40;;
82703;SDS011;72427;42.000;21.464;2023-09-19T07:49:52;35.15;;;20.90;;
82703;SDS011;72427;42.000;21.464;2023-09-19T07:52:20;38.33;;;18.80;;
82703;SDS011;72427;42.000;21.464;2023-09-19T07:54:48;33.90;;;18.88;;
82703;SDS011;72427;42.000;21.464;2023-09-19T07:57:14;35.20;;;19.15;;
82703;SDS011;72427;42.000;21.464;2023-09-19T07:59:41;37.80;;;20.40;;
82703;SDS011;72427;42.000;21.464;2023-09-19T08:02:08;39.78;;;20.42;;
82703;SDS011;72427;42.000;21.464;2023-09-19T08:04:41;32.22;;;19.08;;
82703;SDS011;72427;42.000;21.464;2023-09-19T08:07:07;37.33;;;19.90;;
82703;SDS011;72427;42.000;21.464;2023-09-19T08:09:34;37.60;;;21.88;;
82703;SDS011;72427;42.000;21.464;2023-09-19T08:12:00;39.22;;;21.17;;
82703;SDS011;72427;42.000;21.464;2023-09-19T08:14:29;38.78;;;20.83;;
82703;SDS011;72427;42.000;21.464;2023-09-19T08:16:58;33.88;;;19.55;;
82703;SDS011;72427;42.000;21.464;2023-09-19T08:19:25;35.40;;;20.33;;
82703;SDS011;72427;42.000;21.464;2023-09-19T08:21:56;44.35;;;27.17;;
82703;SDS011;72427;42.000;21.464;2023-09-19T08:24:26;55.40;;;28.33;;
82703;SDS011;72427;42.000;21.464;2023-09-19T08:26:53;38.42;;;21.20;;
82703;SDS011;72427;42.000;21.464;2023-09-19T08:29:20;44.35;;;21.17;;
82703;SDS011;72427;42.000;21.464;2023-09-19T08:31:46;32.75;;;19.42;;
82703;SDS011;72427;42.000;21.464;2023-09-19T08:34:16;27.90;;;16.38;;
82703;SDS011;72427;42.000;21.464;2023-09-19T08:36:43;31.05;;;19.33;;
82703;SDS011;72427;42.000;21.464;2023-09-19T08:39:10;33.13;;;19.13;;
82703;SDS011;72427;42.000;21.464;2023-09-19T08:41:36;30.88;;;18.35;;
82703;SDS011;72427;42.000;21.464;2023-09-19T08:44:02;37.20;;;18.92;;
82703;SDS011;72427;42.000;21.464;2023-09-19T08:46:30;32.20;;;17.40;;
82703;SDS011;72427;42.000;21.464;2023-09-19T08:49:07;43.72;;;19.73;;
82703;SDS011;72427;42.000;21.464;2023-09-19T08:51:44;35.95;;;18.98;;
82703;SDS011;72427;42.000;21.464;2023-09-19T08:56:44;35.30;;;18.15;;
82703;SDS011;72427;42.000;21.464;2023-09-19T08:59:12;34.30;;;18.63;;
82703;SDS011;72427;42.000;21.464;2023-09-19T09:01:38;35.78;;;19.15;;
82703;SDS011;72427;42.000;21.464;2023-09-19T09:04:07;31.30;;;18.88;;
82703;SDS011;72427;42.000;21.464;2023-09-19T09:06:34;35.83;;;20.20;;
82703;SDS011;72427;42.000;21.464;2023-09-19T09:09:01;35.22;;;21.30;;
82703;SDS011;72427;42.000;21.464;2023-09-19T09:11:27;41.80;;;18.52;;
82703;SDS011;72427;42.000;21.464;2023-09-19T09:13:53;40.22;;;21.05;;
82703;SDS011;72427;42.000;21.464;2023-09-19T09:16:19;33.78;;;19.33;;
82703;SDS011;72427;42.000;21.464;2023-09-19T09:18:45;32.75;;;18.23;;
82703;SDS011;72427;42.000;21.464;2023-09-19T09:21:17;34.20;;;19.25;;
82703;SDS011;72427;42.000;21.464;2023-09-19T09:23:46;39.40;;;22.75;;
82703;SDS011;72427;42.000;21.464;2023-09-19T09:26:12;37.10;;;21.45;;
82703;SDS011;72427;42.000;21.464;2023-09-19T09:28:46;34.42;;;21.00;;
82703;SDS011;72427;42.000;21.464;2023-09-19T09:31:23;29.88;;;17.23;;
82703;SDS011;72427;42.000;21.464;2023-09-19T09:33:56;28.42;;;20.00;;
82703;SDS011;72427;42.000;21.464;2023-09-19T09:39:01;30.10;;;17.10;;
82703;SDS011;72427;42.000;21.464;2023-09-19T09:41:41;29.75;;;18.02;;
82703;SDS011;72427;42.000;21.464;2023-09-19T09:44:14;31.80;;;18.42;;
82703;SDS011;72427;42.000;21.464;2023-09-19T09:46:44;28.52;;;18.27;;
82703;SDS011;72427;42.000;21.464;2023-09-19T09:49:23;27.83;;;17.02;;
82703;SDS011;72427;42.000;21.464;2023-09-19T09:51:59;28.75;;;19.50;;
82703;SDS011;72427;42.000;21.464;2023-09-19T09:54:29;29.63;;;19.15;;
82703;SDS011;72427;42.000;21.464;2023-09-19T09:57:01;29.05;;;19.65;;
82703;SDS011;72427;42.000;21.464;2023-09-19T09:59:43;36.58;;;21.17;;
82703;SDS011;72427;42.000;21.464;2023-09-19T10:02:16;32.20;;;21.55;;
82703;SDS011;72427;42.000;21.464;2023-09-19T10:04:50;28.42;;;17.65;;
82703;SDS011;72427;42.000;21.464;2023-09-19T10:07:39;29.77;;;19.80;;
82703;SDS011;72427;42.000;21.464;2023-09-19T10:10:28;30.85;;;19.92;;
82703;SDS011;72427;42.000;21.464;2023-09-19T10:12:55;30.60;;;19.10;;
82703;SDS011;72427;42.000;21.464;2023-09-19T10:15:28;33.45;;;18.67;;
82703;SDS011;72427;42.000;21.464;2023-09-19T10:17:57;25.98;;;18.67;;
82703;SDS011;72427;42.000;21.464;2023-09-19T10:20:26;28.02;;;19.25;;
82703;SDS011;72427;42.000;21.464;2023-09-19T10:23:14;27.42;;;18.67;;
82703;SDS011;72427;42.000;21.464;2023-09-19T10:25:47;27.00;;;18.42;;
82703;SDS011;72427;42.000;21.464;2023-09-19T10:28:14;32.30;;;19.80;;
82703;SDS011;72427;42.000;21.464;2023-09-19T10:30:44;29.90;;;17.75;;
82703;SDS011;72427;42.000;21.464;2023-09-19T10:33:12;31.27;;;18.58;;
82703;SDS011;72427;42.000;21.464;2023-09-19T10:35:40;37.65;;;19.40;;
82703;SDS011;72427;42.000;21.464;2023-09-19T10:38:08;29.40;;;19.52;;
82703;SDS011;72427;42.000;21.464;2023-09-19T10:40:35;32.55;;;17.10;;
82703;SDS011;72427;42.000;21.464;2023-09-19T10:43:05;32.45;;;17.05;;
82703;SDS011;72427;42.000;21.464;2023-09-19T10:45:32;25.95;;;17.27;;
82703;SDS011;72427;42.000;21.464;2023-09-19T10:47:59;31.60;;;18.42;;
82703;SDS011;72427;42.000;21.464;2023-09-19T10:50:27;44.95;;;19.60;;
82703;SDS011;72427;42.000;21.464;2023-09-19T10:52:56;32.08;;;19.30;;
82703;SDS011;72427;42.000;21.464;2023-09-19T10:55:29;29.25;;;17.23;;
82703;SDS011;72427;42.000;21.464;2023-09-19T10:57:56;32.30;;;17.92;;
82703;SDS011;72427;42.000;21.464;2023-09-19T11:00:54;38.28;;;18.58;;
82703;SDS011;72427;42.000;21.464;2023-09-19T11:03:22;31.20;;;18.65;;
82703;SDS011;72427;42.000;21.464;2023-09-19T11:06:08;31.27;;;18.30;;
82703;SDS011;72427;42.000;21.464;2023-09-19T11:22:18;25.55;;;17.73;;
82703;SDS011;72427;42.000;21.464;2023-09-19T11:24:47;25.08;;;16.92;;
82703;SDS011;72427;42.000;21.464;2023-09-19T11:27:16;24.80;;;17.27;;
82703;SDS011;72427;42.000;21.464;2023-09-19T11:29:43;26.63;;;18.00;;
82703;SDS011;72427;42.000;21.464;2023-09-19T11:32:09;27.23;;;18.17;;
82703;SDS011;72427;42.000;21.464;2023-09-19T11:39:39;27.02;;;18.08;;
82703;SDS011;72427;42.000;21.464;2023-09-19T11:44:52;24.60;;;17.35;;
82703;SDS011;72427;42.000;21.464;2023-09-19T11:47:21;22.13;;;16.42;;
82703;SDS011;72427;42.000;21.464;2023-09-19T11:49:50;24.02;;;16.98;;
82703;SDS011;72427;42.000;21.464;2023-09-19T11:52:21;23.67;;;16.80;;
82703;SDS011;72427;42.000;21.464;2023-09-19T11:54:57;24.55;;;17.05;;
82703;SDS011;72427;42.000;21.464;2023-09-19T11:57:25;24.45;;;16.48;;
82703;SDS011;72427;42.000;21.464;2023-09-19T11:59:51;30.65;;;16.65;;
82703;SDS011;72427;42.000;21.464;2023-09-19T12:02:27;20.83;;;15.82;;
82703;SDS011;72427;42.000;21.464;2023-09-19T12:04:56;23.08;;;17.02;;
82703;SDS011;72427;42.000;21.464;2023-09-19T12:07:22;22.10;;;16.80;;
82703;SDS011;72427;42.000;21.464;2023-09-19T12:10:04;24.13;;;18.55;;
82703;SDS011;72427;42.000;21.464;2023-09-19T12:12:31;29.90;;;18.02;;
82703;SDS011;72427;42.000;21.464;2023-09-19T12:14:58;20.60;;;15.77;;
82703;SDS011;72427;42.000;21.464;2023-09-19T12:17:38;28.48;;;17.50;;
82703;SDS011;72427;42.000;21.464;2023-09-19T12:20:07;19.73;;;16.17;;
82703;SDS011;72427;42.000;21.464;2023-09-19T12:22:40;23.48;;;17.00;;
82703;SDS011;72427;42.000;21.464;2023-09-19T12:25:08;27.60;;;16.85;;
82703;SDS011;72427;42.000;21.464;2023-09-19T12:27:45;23.00;;;16.20;;
82703;SDS011;72427;42.000;21.464;2023-09-19T12:30:17;22.50;;;15.82;;
82703;SDS011;72427;42.000;21.464;2023-09-19T12:32:45;22.17;;;15.88;;
82703;SDS011;72427;42.000;21.464;2023-09-19T12:37:45;20.95;;;16.48;;
82703;SDS011;72427;42.000;21.464;2023-09-19T12:40:18;22.15;;;15.93;;
82703;SDS011;72427;42.000;21.464;2023-09-19T12:42:53;25.10;;;16.40;;
82703;SDS011;72427;42.000;21.464;2023-09-19T12:45:20;22.63;;;15.98;;
82703;SDS011;72427;42.000;21.464;2023-09-19T12:50:33;23.25;;;16.27;;
82703;SDS011;72427;42.000;21.464;2023-09-19T12:52:59;22.85;;;15.23;;
82703;SDS011;72427;42.000;21.464;2023-09-19T13:00:40;23.33;;;16.08;;
82703;SDS011;72427;42.000;21.464;2023-09-19T13:05:49;22.67;;;15.90;;
82703;SDS011;72427;42.000;21.464;2023-09-19T13:08:23;21.75;;;16.60;;
82703;SDS011;72427;42.000;21.464;2023-09-19T13:13:38;33.50;;;16.80;;
82703;SDS011;72427;42.000;21.464;2023-09-19T13:16:04;22.95;;;15.77;;
82703;SDS011;72427;42.000;21.464;2023-09-19T13:18:49;27.17;;;16.05;;
82703;SDS011;72427;42.000;21.464;2023-09-19T13:21:26;23.77;;;16.60;;
82703;SDS011;72427;42.000;21.464;2023-09-19T13:23:53;21.88;;;15.40;;
82703;SDS011;72427;42.000;21.464;2023-09-19T13:26:27;23.83;;;16.15;;
82703;SDS011;72427;42.000;21.464;2023-09-19T13:28:53;25.30;;;15.73;;
82703;SDS011;72427;42.000;21.464;2023-09-19T13:31:20;19.23;;;15.10;;
82703;SDS011;72427;42.000;21.464;2023-09-19T13:33:47;21.80;;;16.10;;
82703;SDS011;72427;42.000;21.464;2023-09-19T13:36:14;21.27;;;16.67;;
82703;SDS011;72427;42.000;21.464;2023-09-19T13:38:40;18.50;;;15.52;;
82703;SDS011;72427;42.000;21.464;2023-09-19T13:41:10;19.75;;;15.48;;
82703;SDS011;72427;42.000;21.464;2023-09-19T13:43:36;19.38;;;14.75;;
82703;SDS011;72427;42.000;21.464;2023-09-19T13:46:03;21.60;;;15.77;;
82703;SDS011;72427;42.000;21.464;2023-09-19T13:48:29;18.90;;;14.45;;
82703;SDS011;72427;42.000;21.464;2023-09-19T13:50:56;19.85;;;15.82;;
82703;SDS011;72427;42.000;21.464;2023-09-19T13:53:22;21.83;;;16.65;;
82703;SDS011;72427;42.000;21.464;2023-09-19T13:55:48;22.10;;;15.60;;
82703;SDS011;72427;42.000;21.464;2023-09-19T13:58:14;21.48;;;15.25;;
82703;SDS011;72427;42.000;21.464;2023-09-19T14:00:41;22.38;;;15.40;;
82703;SDS011;72427;42.000;21.464;2023-09-19T14:03:08;34.03;;;16.55;;
82703;SDS011;72427;42.000;21.464;2023-09-19T14:05:35;21.23;;;15.25;;
82703;SDS011;72427;42.000;21.464;2023-09-19T14:08:02;43.22;;;16.52;;
82703;SDS011;72427;42.000;21.464;2023-09-19T14:10:29;25.30;;;15.13;;
82703;SDS011;72427;42.000;21.464;2023-09-19T14:12:58;24.75;;;15.38;;
82703;SDS011;72427;42.000;21.464;2023-09-19T14:15:24;23.88;;;14.20;;
82703;SDS011;72427;42.000;21.464;2023-09-19T14:17:55;21.50;;;15.55;;
82703;SDS011;72427;42.000;21.464;2023-09-19T14:20:21;23.58;;;15.70;;
82703;SDS011;72427;42.000;21.464;2023-09-19T14:22:48;26.73;;;16.10;;
82703;SDS011;72427;42.000;21.464;2023-09-19T14:25:14;30.55;;;16.50;;
82703;SDS011;72427;42.000;21.464;2023-09-19T14:27:40;28.55;;;17.00;;
82703;SDS011;72427;42.000;21.464;2023-09-19T14:30:07;30.33;;;16.60;;
82703;SDS011;72427;42.000;21.464;2023-09-19T14:32:34;28.17;;;17.10;;
82703;SDS011;72427;42.000;21.464;2023-09-19T14:35:01;26.77;;;16.33;;
82703;SDS011;72427;42.000;21.464;2023-09-19T14:37:27;28.48;;;16.17;;
82703;SDS011;72427;42.000;21.464;2023-09-19T14:39:53;44.47;;;19.15;;
82703;SDS011;72427;42.000;21.464;2023-09-19T14:42:19;39.55;;;18.00;;
82703;SDS011;72427;42.000;21.464;2023-09-19T14:44:46;29.75;;;14.73;;
82703;SDS011;72427;42.000;21.464;2023-09-19T14:47:15;27.25;;;18.98;;
82703;SDS011;72427;42.000;21.464;2023-09-19T14:49:42;25.02;;;18.00;;
82703;SDS011;72427;42.000;21.464;2023-09-19T14:52:09;30.63;;;19.05;;
82703;SDS011;72427;42.000;21.464;2023-09-19T14:54:37;24.95;;;19.30;;
82703;SDS011;72427;42.000;21.464;2023-09-19T14:57:06;33.60;;;20.20;;
82703;SDS011;72427;42.000;21.464;2023-09-19T14:59:33;30.50;;;19.30;;
82703;SDS011;72427;42.000;21.464;2023-09-19T15:02:06;37.30;;;21.92;;
82703;SDS011;72427;42.000;21.464;2023-09-19T15:04:32;44.17;;;21.38;;
82703;SDS011;72427;42.000;21.464;2023-09-19T15:06:59;27.83;;;18.30;;
82703;SDS011;72427;42.000;21.464;2023-09-19T15:09:25;32.65;;;19.00;;
82703;SDS011;72427;42.000;21.464;2023-09-19T15:11:54;22.48;;;15.32;;
82703;SDS011;72427;42.000;21.464;2023-09-19T15:14:21;27.85;;;16.90;;
82703;SDS011;72427;42.000;21.464;2023-09-19T15:16:47;35.72;;;17.35;;
82703;SDS011;72427;42.000;21.464;2023-09-19T15:19:14;36.63;;;18.45;;